Weather observations for the past three days for
Safford, Safford Municipal Airport
Metric (Imperial)
Date Time (mst) Wind (kph) Vis. (km) Weather Sky Cond. Temperature (ºC) Relative Humidity Wind Chill (°C) Heat Index (°C) Pressure Precipitation (cm)
Air Dwpt 6 hour altimeter (cm) sea level (mb) 1 hr 3 hr 6 hr
Max. Min.
04 04:51 NW 7 16.09 Fair CLR 22.2 17.8 25.6 21.7 76% 76.2 1011.0
04 03:51 Calm 16.09 Partly Cloudy SCT100 23.3 17.8 71% 76.17 1010.7
04 02:51 S 6 16.09 Mostly Cloudy BKN100 23.9 17.8 69% 25 76.15 1009.7
04 01:51 NE 6 16.09 A Few Clouds FEW080 FEW100 23.9 17.8 69% 25 76.15 1009.3
04 00:51 E 6 16.09 Overcast OVC100 25 18.3 66% 26 76.17 1009.5
03 23:51 SE 11 16.09 A Few Clouds FEW100 25 18.3 66% 26 76.17 1009.7
03 22:51 SE 13 16.09 Partly Cloudy SCT100 25.6 17.8 28.3 25.6 62% 27 76.15 1009.4
03 21:51 E 7 16.09 Mostly Cloudy BKN100 26.1 17.2 58% 27 76.15 1009.6
03 20:51 SE 7 16.09 A Few Clouds FEW060 27.2 16.1 51% 28 76.15 1009.5
03 19:51 E 6 16.09 Fair CLR 26.7 17.8 58% 28 76.1 1009.0
03 18:51 S 19 16.09 Fair CLR 26.7 18.3 60% 28 76.05 1008.4
03 17:51 SE 6 16.09 Fair CLR 28.3 16.7 49% 29 76.05 1008.3
03 16:51 S 6 16.09 Fair CLR 27.2 17.2 33.9 26.1 54% 28 76.07 1008.8
03 15:51 SW 19 16.09 Mostly Cloudy FEW030 BKN110 26.7 17.8 58% 28 76.07 1009.0
03 14:51 W 35 G 50 16.09 Thunderstorm in Vicinity and Breezy CLR 30.6 16.7 43% 31 76.02 1007.8
03 13:51 Vrbl 11 16.09 A Few Clouds FEW110 33.3 14.4 32% 33 76.05 1007.8
03 12:51 Vrbl 6 16.09 Fair CLR 32.2 15 35% 32 76.12 1008.6
03 11:51 Vrbl 7 16.09 Fair CLR 31.7 15.6 38% 31 76.2 1009.7
03 10:51 NW 19 G 28 16.09 Fair CLR 30.6 16.1 30.6 26.7 42% 31 76.28 1010.8
03 09:51 W 20 16.09 Fair CLR 30.6 16.1 42% 31 76.28 1010.9
03 08:51 W 19 16.09 Fair CLR 29.4 16.1 45% 30 76.3 1011.1
03 07:51 S 9 16.09 Fair CLR 27.2 16.1 51% 28 76.3 1011.3
03 06:51 NW 9 16.09 A Few Clouds FEW100 27.2 15.6 49% 28 76.28 1010.9
03 05:51 NW 9 16.09 Fair CLR 26.7 15 49% 27 76.23 1010.2
03 04:51 NW 11 16.09 Fair CLR 27.2 15 30 26.1 47% 27 76.2 1009.5
03 03:51 NW 13 16.09 Fair CLR 26.1 13.3 45% 26 76.17 1009.3
03 02:51 NW 15 16.09 A Few Clouds FEW095 27.2 12.8 41% 27 76.17 1009.2
03 01:51 NW 13 16.09 A Few Clouds FEW110 27.8 13.3 41% 28 76.17 1009.1
03 00:51 NW 11 16.09 A Few Clouds FEW110 28.3 13.3 40% 28 76.17 1009.2
02 23:51 NW 17 16.09 Mostly Cloudy FEW080 BKN110 29.4 12.2 35% 29 76.17 1009.3
02 22:51 NW 19 16.09 Mostly Cloudy BKN120 30 12.2 34.4 30 33% 29 76.17 1009.2
02 21:51 NW 19 16.09 Fair CLR 30 12.8 35% 29 76.17 1009.5
02 20:51 NW 17 16.09 Fair CLR 30.6 13.9 36% 30 76.15 1009.5
02 19:51 W 20 16.09 Fair CLR 31.1 13.3 34% 30 76.1 1009.0
02 18:51 W 24 16.09 Fair CLR 31.7 13.3 33% 31 76.05 1008.5
02 17:51 W 26 16.09 Fair CLR 32.8 12.2 28% 32 76.07 1008.7
02 16:51 W 26 16.09 A Few Clouds FEW120 34.4 10.6 36.1 31.7 23% 33 76.05 1008.3
02 15:51 W 22 16.09 A Few Clouds FEW120 34.4 10.6 23% 33 76.07 1008.5
02 14:51 W 24 16.09 Fair CLR 35 10.6 23% 33 76.1 1008.7
02 13:51 SW 22 G 35 16.09 A Few Clouds FEW120 35.6 10 21% 34 76.15 1009.3
02 12:51 SW 15 G 35 16.09 Fair CLR 35 10 22% 33 76.25 1010.5
02 11:51 Calm 16.09 Fair CLR 32.8 12.8 30% 32 76.33 1011.7
02 10:51 S 7 16.09 Fair CLR 31.7 13.9 32.2 20 34% 31 76.4 1012.6
02 09:51 NW 7 16.09 Fair CLR 30 14.4 39% 30 76.43 1013.1
02 08:51 S 6 16.09 Fair CLR 26.7 15.6 51% 27 76.43 1013.5
02 07:51 Calm 16.09 Fair CLR 24.4 15.6 58% 26 76.43 1013.5
02 06:51 SE 6 16.09 Fair CLR 22.2 15.6 66% 76.4 1013.3
02 05:51 Calm 16.09 Fair CLR 20 15 73% 76.35 1012.7
02 04:51 NE 6 16.09 Fair CLR 21.1 15 27.2 21.1 68% 76.33 1011.9
02 03:51 NW 7 16.09 Fair CLR 22.8 15 62% 76.3 1011.3
02 02:51 NW 11 16.09 Fair CLR 23.9 15 58% 25 76.3 1011.5
02 01:51 NW 15 16.09 Fair CLR 24.4 14.4 54% 26 76.3 1011.4
02 00:51 W 15 16.09 Fair CLR 25 14.4 52% 26 76.3 1011.3
01 23:51 W 13 16.09 Fair CLR 25.6 14.4 50% 26 76.28 1011.4
01 22:51 W 15 16.09 A Few Clouds FEW110 27.2 13.9 35 27.2 44% 27 76.28 1011.4
01 21:51 NW 17 16.09 Fair CLR 28.9 13.9 40% 28 76.28 1011.6
01 20:51 NW 20 16.09 Fair CLR 29.4 12.8 36% 29 76.23 1010.9
01 19:51 W 19 16.09 Fair CLR 31.1 11.7 30% 30 76.12 1009.7
01 18:51 NW 24 16.09 Fair CLR 32.2 10 25% 31 76.07 1009.0
01 17:51 W 24 16.09 Fair CLR 33.3 10 24% 32 76.07 1009.1
01 16:51 W 15 16.09 Fair CLR 35 7.2 35.6 27.2 18% 33 76.1 1009.1
01 15:51 W 22 16.09 Fair CLR 35 9.4 21% 33 76.1 1009.1
01 14:51 Calm 16.09 Fair CLR 32.8 10.6 26% 31 76.15 1010.1
01 13:51 W 11 16.09 Fair CLR 33.3 11.7 27% 32 76.23 1011.1
01 12:51 W 13 16.09 Fair CLR 32.2 11.7 28% 31 76.3 1012.2
01 11:51 Calm 16.09 Fair CLR 30 12.8 35% 29 76.4 1013.5
01 10:51 Calm 16.09 Fair CLR 27.2 14.4 27.2 16.7 45% 27 76.45 1014.5
01 09:51 Calm 16.09 Fair CLR 25 15.6 56% 26 76.48 1015.2
01 08:51 SW 7 16.09 Fair CLR 23.3 16.7 67% 76.48 1015.3
01 07:51 W 11 16.09 Fair CLR 20.6 17.2 81% 76.45 1015.0
01 06:51 Calm 16.09 Fair CLR 18.9 17.2 90% 76.43 1014.9
Date Time (mst) Wind (kph) Vis. (km) Weather Sky Cond. Air Dwpt Max. Min. Relative Humidity Wind Chill (°C) Heat Index (°C) altimeter (cm) sea level (mb) 1 hr 3 hr 6 hr
6 hour
Temperature (ºC) Pressure Precipitation (cm)